sensor_id;sensor_type;location;lat;lon;timestamp;pressure;altitude;pressure_sealevel;temperature;humidity
24160;BME280;62385;41.594;23.808;2023-05-23T00:01:45;95198.44;;;14.25;74.63
24160;BME280;62385;41.594;23.808;2023-05-23T00:04:11;95208.75;;;14.28;74.91
24160;BME280;62385;41.594;23.808;2023-05-23T00:06:43;95196.38;;;14.21;75.40
24160;BME280;62385;41.594;23.808;2023-05-23T00:09:15;95195.38;;;14.22;74.71
24160;BME280;62385;41.594;23.808;2023-05-23T00:11:41;95198.38;;;14.53;73.75
24160;BME280;62385;41.594;23.808;2023-05-23T00:14:13;95191.81;;;14.62;73.97
24160;BME280;62385;41.594;23.808;2023-05-23T00:16:40;95199.03;;;14.68;73.86
24160;BME280;62385;41.594;23.808;2023-05-23T00:19:12;95194.69;;;14.61;73.87
24160;BME280;62385;41.594;23.808;2023-05-23T00:21:45;95204.53;;;14.54;74.47
24160;BME280;62385;41.594;23.808;2023-05-23T00:24:16;95205.53;;;14.40;74.89
24160;BME280;62385;41.594;23.808;2023-05-23T00:26:43;95205.78;;;14.04;75.78
24160;BME280;62385;41.594;23.808;2023-05-23T00:29:10;95193.63;;;14.01;76.76
24160;BME280;62385;41.594;23.808;2023-05-23T00:31:42;95201.69;;;14.08;76.22
24160;BME280;62385;41.594;23.808;2023-05-23T00:34:14;95194.56;;;14.28;75.01
24160;BME280;62385;41.594;23.808;2023-05-23T00:36:42;95198.34;;;14.40;74.18
24160;BME280;62385;41.594;23.808;2023-05-23T00:39:08;95194.69;;;14.07;75.72
24160;BME280;62385;41.594;23.808;2023-05-23T00:41:34;95191.97;;;14.00;76.21
24160;BME280;62385;41.594;23.808;2023-05-23T00:44:00;95199.63;;;13.62;77.36
24160;BME280;62385;41.594;23.808;2023-05-23T00:46:28;95196.47;;;13.52;77.43
24160;BME280;62385;41.594;23.808;2023-05-23T00:48:55;95184.81;;;13.60;77.33
24160;BME280;62385;41.594;23.808;2023-05-23T00:51:20;95188.31;;;13.60;76.63
24160;BME280;62385;41.594;23.808;2023-05-23T00:53:47;95187.16;;;13.76;75.44
24160;BME280;62385;41.594;23.808;2023-05-23T00:56:13;95194.41;;;13.54;76.31
24160;BME280;62385;41.594;23.808;2023-05-23T00:58:39;95195.13;;;13.69;75.70
24160;BME280;62385;41.594;23.808;2023-05-23T01:01:05;95189.28;;;13.53;75.77
24160;BME280;62385;41.594;23.808;2023-05-23T01:03:31;95190.84;;;13.40;75.98
24160;BME280;62385;41.594;23.808;2023-05-23T01:05:56;95193.25;;;13.63;75.66
24160;BME280;62385;41.594;23.808;2023-05-23T01:08:22;95188.69;;;13.57;76.04
24160;BME280;62385;41.594;23.808;2023-05-23T01:10:48;95188.72;;;13.64;75.89
24160;BME280;62385;41.594;23.808;2023-05-23T01:13:33;95182.53;;;13.57;75.97
24160;BME280;62385;41.594;23.808;2023-05-23T01:16:09;95183.00;;;13.67;75.20
24160;BME280;62385;41.594;23.808;2023-05-23T01:18:39;95183.00;;;13.32;76.34
24160;BME280;62385;41.594;23.808;2023-05-23T01:26:51;95179.69;;;13.03;76.74
24160;BME280;62385;41.594;23.808;2023-05-23T01:29:25;95174.88;;;12.91;76.48
24160;BME280;62385;41.594;23.808;2023-05-23T01:31:52;95175.09;;;12.69;76.77
24160;BME280;62385;41.594;23.808;2023-05-23T01:34:20;95174.63;;;12.65;76.59
24160;BME280;62385;41.594;23.808;2023-05-23T01:36:49;95176.88;;;12.62;76.79
24160;BME280;62385;41.594;23.808;2023-05-23T01:39:14;95166.78;;;12.78;75.89
24160;BME280;62385;41.594;23.808;2023-05-23T01:41:40;95164.44;;;12.69;75.50
24160;BME280;62385;41.594;23.808;2023-05-23T01:44:06;95160.19;;;12.53;75.92
24160;BME280;62385;41.594;23.808;2023-05-23T01:46:33;95164.13;;;12.78;74.51
24160;BME280;62385;41.594;23.808;2023-05-23T01:49:02;95168.59;;;12.78;73.90
24160;BME280;62385;41.594;23.808;2023-05-23T01:51:28;95160.88;;;12.83;73.48
24160;BME280;62385;41.594;23.808;2023-05-23T01:53:55;95164.66;;;12.95;72.92
24160;BME280;62385;41.594;23.808;2023-05-23T01:56:21;95166.63;;;12.86;72.88
24160;BME280;62385;41.594;23.808;2023-05-23T01:58:47;95163.47;;;12.13;74.84
24160;BME280;62385;41.594;23.808;2023-05-23T02:01:13;95170.31;;;12.22;74.55
24160;BME280;62385;41.594;23.808;2023-05-23T02:03:38;95166.47;;;12.24;74.46
24160;BME280;62385;41.594;23.808;2023-05-23T02:06:04;95162.88;;;11.67;75.76
24160;BME280;62385;41.594;23.808;2023-05-23T02:08:30;95166.47;;;11.88;76.15
24160;BME280;62385;41.594;23.808;2023-05-23T02:10:55;95165.19;;;11.55;77.08
24160;BME280;62385;41.594;23.808;2023-05-23T02:13:22;95166.09;;;11.77;76.14
24160;BME280;62385;41.594;23.808;2023-05-23T02:15:47;95156.34;;;11.98;75.27
24160;BME280;62385;41.594;23.808;2023-05-23T02:18:15;95168.75;;;11.77;75.31
24160;BME280;62385;41.594;23.808;2023-05-23T02:20:42;95179.38;;;11.47;76.34
24160;BME280;62385;41.594;23.808;2023-05-23T02:23:08;95181.81;;;11.72;76.04
24160;BME280;62385;41.594;23.808;2023-05-23T02:25:36;95174.84;;;12.07;74.91
24160;BME280;62385;41.594;23.808;2023-05-23T02:28:05;95184.78;;;12.34;74.56
24160;BME280;62385;41.594;23.808;2023-05-23T02:30:30;95182.59;;;12.23;74.74
24160;BME280;62385;41.594;23.808;2023-05-23T02:32:56;95180.28;;;11.98;74.92
24160;BME280;62385;41.594;23.808;2023-05-23T02:35:23;95178.78;;;12.11;74.45
24160;BME280;62385;41.594;23.808;2023-05-23T02:37:48;95189.16;;;12.06;74.37
24160;BME280;62385;41.594;23.808;2023-05-23T02:40:14;95179.94;;;11.57;76.04
24160;BME280;62385;41.594;23.808;2023-05-23T02:42:41;95176.34;;;11.94;74.08
24160;BME280;62385;41.594;23.808;2023-05-23T02:45:07;95179.66;;;11.96;74.33
24160;BME280;62385;41.594;23.808;2023-05-23T02:47:33;95178.94;;;11.29;76.96
24160;BME280;62385;41.594;23.808;2023-05-23T02:49:58;95180.38;;;11.90;74.85
24160;BME280;62385;41.594;23.808;2023-05-23T02:52:24;95179.94;;;11.57;75.44
24160;BME280;62385;41.594;23.808;2023-05-23T02:54:50;95178.09;;;11.43;76.32
24160;BME280;62385;41.594;23.808;2023-05-23T02:57:16;95176.00;;;11.53;75.93
24160;BME280;62385;41.594;23.808;2023-05-23T02:59:42;95179.38;;;11.33;75.90
24160;BME280;62385;41.594;23.808;2023-05-23T03:02:07;95188.00;;;11.64;75.63
24160;BME280;62385;41.594;23.808;2023-05-23T03:04:33;95191.03;;;11.32;76.10
24160;BME280;62385;41.594;23.808;2023-05-23T03:06:58;95182.72;;;10.97;77.59
24160;BME280;62385;41.594;23.808;2023-05-23T03:09:24;95197.25;;;11.24;76.46
24160;BME280;62385;41.594;23.808;2023-05-23T03:11:50;95196.66;;;10.99;77.10
24160;BME280;62385;41.594;23.808;2023-05-23T03:14:16;95200.91;;;11.08;77.33
24160;BME280;62385;41.594;23.808;2023-05-23T03:16:42;95198.44;;;11.22;76.33
24160;BME280;62385;41.594;23.808;2023-05-23T03:19:08;95193.13;;;11.36;76.19
24160;BME280;62385;41.594;23.808;2023-05-23T03:21:35;95187.44;;;11.25;76.30
24160;BME280;62385;41.594;23.808;2023-05-23T03:24:00;95202.09;;;11.35;75.93
24160;BME280;62385;41.594;23.808;2023-05-23T03:26:28;95194.44;;;10.88;77.91
24160;BME280;62385;41.594;23.808;2023-05-23T03:28:55;95200.47;;;10.82;78.36
24160;BME280;62385;41.594;23.808;2023-05-23T03:31:20;95190.03;;;10.81;78.42
24160;BME280;62385;41.594;23.808;2023-05-23T03:33:46;95204.22;;;11.25;77.27
24160;BME280;62385;41.594;23.808;2023-05-23T03:36:12;95197.19;;;11.47;76.60
24160;BME280;62385;41.594;23.808;2023-05-23T03:38:37;95194.97;;;11.36;76.44
24160;BME280;62385;41.594;23.808;2023-05-23T03:41:03;95197.09;;;11.26;77.00
24160;BME280;62385;41.594;23.808;2023-05-23T03:43:29;95202.69;;;10.93;77.85
24160;BME280;62385;41.594;23.808;2023-05-23T03:45:55;95210.25;;;11.04;77.94
24160;BME280;62385;41.594;23.808;2023-05-23T03:48:20;95205.38;;;11.08;77.84
24160;BME280;62385;41.594;23.808;2023-05-23T03:50:48;95207.25;;;11.22;78.15
24160;BME280;62385;41.594;23.808;2023-05-23T03:53:14;95207.53;;;11.42;77.29
24160;BME280;62385;41.594;23.808;2023-05-23T03:55:39;95207.19;;;11.74;76.49
24160;BME280;62385;41.594;23.808;2023-05-23T03:58:05;95202.84;;;12.02;75.32
24160;BME280;62385;41.594;23.808;2023-05-23T04:00:32;95200.84;;;12.26;74.73
24160;BME280;62385;41.594;23.808;2023-05-23T04:02:59;95202.22;;;12.36;74.98
24160;BME280;62385;41.594;23.808;2023-05-23T04:05:24;95216.75;;;12.19;75.33
24160;BME280;62385;41.594;23.808;2023-05-23T04:07:50;95216.75;;;12.19;75.50
24160;BME280;62385;41.594;23.808;2023-05-23T04:10:17;95212.41;;;12.33;75.00
24160;BME280;62385;41.594;23.808;2023-05-23T04:12:43;95213.88;;;12.35;74.98
24160;BME280;62385;41.594;23.808;2023-05-23T04:15:14;95211.53;;;12.68;74.04
24160;BME280;62385;41.594;23.808;2023-05-23T04:17:50;95215.53;;;12.58;74.39
24160;BME280;62385;41.594;23.808;2023-05-23T04:20:16;95219.63;;;12.75;74.82
24160;BME280;62385;41.594;23.808;2023-05-23T04:22:43;95215.44;;;13.36;73.47
24160;BME280;62385;41.594;23.808;2023-05-23T04:25:09;95214.31;;;13.52;72.89
24160;BME280;62385;41.594;23.808;2023-05-23T04:27:41;95207.28;;;13.44;73.54
24160;BME280;62385;41.594;23.808;2023-05-23T04:30:07;95206.84;;;13.40;74.76
24160;BME280;62385;41.594;23.808;2023-05-23T04:32:36;95204.13;;;13.62;73.54
24160;BME280;62385;41.594;23.808;2023-05-23T04:35:02;95207.25;;;13.72;73.39
24160;BME280;62385;41.594;23.808;2023-05-23T04:37:30;95212.47;;;13.86;73.05
24160;BME280;62385;41.594;23.808;2023-05-23T04:40:15;95208.34;;;13.84;73.25
24160;BME280;62385;41.594;23.808;2023-05-23T04:43:00;95219.44;;;13.87;72.09
24160;BME280;62385;41.594;23.808;2023-05-23T04:45:48;95215.59;;;13.97;72.33
24160;BME280;62385;41.594;23.808;2023-05-23T04:48:38;95209.16;;;13.84;71.63
24160;BME280;62385;41.594;23.808;2023-05-23T04:51:05;95215.03;;;14.08;70.71
24160;BME280;62385;41.594;23.808;2023-05-23T04:53:33;95208.00;;;14.00;70.63
24160;BME280;62385;41.594;23.808;2023-05-23T04:55:59;95210.53;;;14.15;70.61
24160;BME280;62385;41.594;23.808;2023-05-23T04:58:24;95209.94;;;14.19;71.14
24160;BME280;62385;41.594;23.808;2023-05-23T05:00:54;95209.97;;;14.26;70.81
24160;BME280;62385;41.594;23.808;2023-05-23T05:03:20;95209.47;;;14.63;69.31
24160;BME280;62385;41.594;23.808;2023-05-23T05:05:46;95217.72;;;14.75;69.35
24160;BME280;62385;41.594;23.808;2023-05-23T05:08:13;95209.72;;;14.75;70.10
24160;BME280;62385;41.594;23.808;2023-05-23T05:10:39;95205.63;;;15.05;68.69
24160;BME280;62385;41.594;23.808;2023-05-23T05:13:05;95207.50;;;14.98;69.00
24160;BME280;62385;41.594;23.808;2023-05-23T05:15:40;95208.72;;;14.96;68.30
24160;BME280;62385;41.594;23.808;2023-05-23T05:18:05;95202.53;;;14.95;68.04
24160;BME280;62385;41.594;23.808;2023-05-23T05:20:32;95202.16;;;15.11;68.11
24160;BME280;62385;41.594;23.808;2023-05-23T05:22:59;95196.16;;;15.16;68.88
24160;BME280;62385;41.594;23.808;2023-05-23T05:25:26;95191.03;;;14.82;68.07
24160;BME280;62385;41.594;23.808;2023-05-23T05:28:00;95190.22;;;15.14;67.55
24160;BME280;62385;41.594;23.808;2023-05-23T05:30:40;95186.09;;;15.18;67.04
24160;BME280;62385;41.594;23.808;2023-05-23T05:33:07;95183.44;;;15.51;66.42
24160;BME280;62385;41.594;23.808;2023-05-23T05:35:34;95186.47;;;15.41;64.34
24160;BME280;62385;41.594;23.808;2023-05-23T05:38:01;95186.06;;;15.57;63.91
24160;BME280;62385;41.594;23.808;2023-05-23T05:40:31;95190.78;;;15.82;63.03
24160;BME280;62385;41.594;23.808;2023-05-23T05:42:57;95178.78;;;15.91;63.57
24160;BME280;62385;41.594;23.808;2023-05-23T05:45:23;95185.19;;;15.90;62.99
24160;BME280;62385;41.594;23.808;2023-05-23T05:47:48;95188.03;;;15.95;62.67
24160;BME280;62385;41.594;23.808;2023-05-23T05:50:17;95183.94;;;15.92;62.11
24160;BME280;62385;41.594;23.808;2023-05-23T05:52:46;95181.38;;;16.17;61.24
24160;BME280;62385;41.594;23.808;2023-05-23T05:55:12;95182.78;;;16.26;61.64
24160;BME280;62385;41.594;23.808;2023-05-23T05:57:44;95176.81;;;16.69;60.33
24160;BME280;62385;41.594;23.808;2023-05-23T06:00:13;95185.09;;;16.16;62.02
24160;BME280;62385;41.594;23.808;2023-05-23T06:02:45;95177.13;;;16.41;61.66
24160;BME280;62385;41.594;23.808;2023-05-23T06:05:35;95161.94;;;16.28;61.48
24160;BME280;62385;41.594;23.808;2023-05-23T06:08:02;95164.72;;;16.59;60.66
24160;BME280;62385;41.594;23.808;2023-05-23T06:10:29;95156.47;;;16.86;60.58
24160;BME280;62385;41.594;23.808;2023-05-23T06:12:55;95155.16;;;16.70;60.23
24160;BME280;62385;41.594;23.808;2023-05-23T06:15:21;95155.81;;;16.90;60.53
24160;BME280;62385;41.594;23.808;2023-05-23T06:17:46;95161.91;;;17.04;60.90
24160;BME280;62385;41.594;23.808;2023-05-23T06:20:12;95150.00;;;17.00;59.07
24160;BME280;62385;41.594;23.808;2023-05-23T06:22:42;95153.78;;;17.35;58.69
24160;BME280;62385;41.594;23.808;2023-05-23T06:25:09;95145.31;;;17.38;59.03
24160;BME280;62385;41.594;23.808;2023-05-23T06:27:35;95139.06;;;17.44;59.57
24160;BME280;62385;41.594;23.808;2023-05-23T06:30:02;95138.16;;;17.75;58.30
24160;BME280;62385;41.594;23.808;2023-05-23T06:32:27;95148.03;;;17.57;57.77
24160;BME280;62385;41.594;23.808;2023-05-23T06:34:54;95138.22;;;17.69;58.28
24160;BME280;62385;41.594;23.808;2023-05-23T06:37:20;95125.31;;;17.77;55.69
24160;BME280;62385;41.594;23.808;2023-05-23T06:39:45;95134.81;;;17.80;56.44
24160;BME280;62385;41.594;23.808;2023-05-23T06:42:11;95131.66;;;18.01;56.97
24160;BME280;62385;41.594;23.808;2023-05-23T06:44:59;95119.75;;;18.27;55.55
24160;BME280;62385;41.594;23.808;2023-05-23T06:47:25;95118.91;;;18.74;54.66
24160;BME280;62385;41.594;23.808;2023-05-23T06:49:50;95115.28;;;18.21;55.74
24160;BME280;62385;41.594;23.808;2023-05-23T06:52:16;95116.53;;;18.55;54.79
24160;BME280;62385;41.594;23.808;2023-05-23T06:54:42;95105.53;;;18.68;53.89
24160;BME280;62385;41.594;23.808;2023-05-23T06:57:08;95110.91;;;18.56;54.64
24160;BME280;62385;41.594;23.808;2023-05-23T06:59:34;95118.81;;;18.92;50.29
24160;BME280;62385;41.594;23.808;2023-05-23T07:02:00;95108.13;;;18.63;51.10
24160;BME280;62385;41.594;23.808;2023-05-23T07:04:25;95098.19;;;18.63;51.94
24160;BME280;62385;41.594;23.808;2023-05-23T07:06:54;95100.16;;;18.68;49.78
24160;BME280;62385;41.594;23.808;2023-05-23T07:09:20;95099.75;;;18.94;49.60
24160;BME280;62385;41.594;23.808;2023-05-23T07:11:46;95095.97;;;19.48;47.81
24160;BME280;62385;41.594;23.808;2023-05-23T07:14:14;95097.44;;;19.09;47.93
24160;BME280;62385;41.594;23.808;2023-05-23T07:16:43;95102.09;;;18.79;47.51
24160;BME280;62385;41.594;23.808;2023-05-23T07:19:09;95093.47;;;19.35;45.37
24160;BME280;62385;41.594;23.808;2023-05-23T07:21:42;95084.22;;;19.19;46.53
24160;BME280;62385;41.594;23.808;2023-05-23T07:24:10;95083.25;;;18.79;46.61
24160;BME280;62385;41.594;23.808;2023-05-23T07:26:36;95084.84;;;19.21;46.28
24160;BME280;62385;41.594;23.808;2023-05-23T07:29:02;95080.13;;;19.28;45.73
24160;BME280;62385;41.594;23.808;2023-05-23T07:31:27;95082.13;;;19.56;44.90
24160;BME280;62385;41.594;23.808;2023-05-23T07:33:56;95081.19;;;19.74;45.88
24160;BME280;62385;41.594;23.808;2023-05-23T07:36:27;95079.66;;;19.31;44.88
24160;BME280;62385;41.594;23.808;2023-05-23T07:38:54;95068.91;;;19.31;45.18
24160;BME280;62385;41.594;23.808;2023-05-23T07:41:19;95073.25;;;19.44;44.53
24160;BME280;62385;41.594;23.808;2023-05-23T07:43:45;95066.56;;;19.47;44.11
24160;BME280;62385;41.594;23.808;2023-05-23T07:46:10;95057.53;;;19.64;43.04
24160;BME280;62385;41.594;23.808;2023-05-23T07:48:36;95065.72;;;19.69;42.29
24160;BME280;62385;41.594;23.808;2023-05-23T07:51:02;95059.72;;;19.91;42.68
24160;BME280;62385;41.594;23.808;2023-05-23T07:53:28;95054.09;;;20.20;43.20
24160;BME280;62385;41.594;23.808;2023-05-23T07:55:54;95054.38;;;20.07;42.36
24160;BME280;62385;41.594;23.808;2023-05-23T07:58:23;95062.50;;;19.84;43.87
24160;BME280;62385;41.594;23.808;2023-05-23T08:00:49;95059.94;;;19.89;40.93
24160;BME280;62385;41.594;23.808;2023-05-23T08:03:34;95064.06;;;20.20;40.35
24160;BME280;62385;41.594;23.808;2023-05-23T08:06:07;95063.97;;;20.15;40.96
24160;BME280;62385;41.594;23.808;2023-05-23T08:08:34;95056.81;;;20.49;41.38
24160;BME280;62385;41.594;23.808;2023-05-23T08:11:01;95066.16;;;21.08;39.81
24160;BME280;62385;41.594;23.808;2023-05-23T08:13:34;95069.88;;;21.18;39.81
24160;BME280;62385;41.594;23.808;2023-05-23T08:16:19;95062.31;;;21.04;39.54
24160;BME280;62385;41.594;23.808;2023-05-23T08:18:45;95063.53;;;20.96;39.69
24160;BME280;62385;41.594;23.808;2023-05-23T08:21:10;95059.75;;;20.64;40.51
24160;BME280;62385;41.594;23.808;2023-05-23T08:23:36;95055.94;;;20.77;39.81
24160;BME280;62385;41.594;23.808;2023-05-23T08:26:01;95048.91;;;20.76;40.10
24160;BME280;62385;41.594;23.808;2023-05-23T08:28:29;95044.09;;;20.78;41.78
24160;BME280;62385;41.594;23.808;2023-05-23T08:30:55;95036.13;;;21.04;39.34
24160;BME280;62385;41.594;23.808;2023-05-23T08:33:23;95030.31;;;20.62;39.52
24160;BME280;62385;41.594;23.808;2023-05-23T08:35:52;95042.53;;;20.65;40.49
24160;BME280;62385;41.594;23.808;2023-05-23T08:38:18;95030.94;;;21.14;39.24
24160;BME280;62385;41.594;23.808;2023-05-23T08:41:00;95028.38;;;21.63;35.65
24160;BME280;62385;41.594;23.808;2023-05-23T08:43:27;95030.97;;;22.18;34.09
24160;BME280;62385;41.594;23.808;2023-05-23T08:45:53;95029.44;;;21.62;35.00
24160;BME280;62385;41.594;23.808;2023-05-23T08:48:20;95032.19;;;21.45;36.60
24160;BME280;62385;41.594;23.808;2023-05-23T08:50:49;95029.94;;;21.97;36.42
24160;BME280;62385;41.594;23.808;2023-05-23T08:53:19;95024.34;;;21.44;36.09
24160;BME280;62385;41.594;23.808;2023-05-23T08:55:49;95030.44;;;21.01;37.01
24160;BME280;62385;41.594;23.808;2023-05-23T08:58:19;95022.59;;;21.16;37.49
24160;BME280;62385;41.594;23.808;2023-05-23T09:00:51;95029.03;;;20.98;36.33
24160;BME280;62385;41.594;23.808;2023-05-23T09:03:18;95017.09;;;21.28;36.26
24160;BME280;62385;41.594;23.808;2023-05-23T09:05:53;95018.84;;;21.77;36.34
24160;BME280;62385;41.594;23.808;2023-05-23T09:08:20;95016.75;;;21.62;34.96
24160;BME280;62385;41.594;23.808;2023-05-23T09:10:48;95009.78;;;21.67;35.46
24160;BME280;62385;41.594;23.808;2023-05-23T09:13:15;95012.06;;;21.96;35.72
24160;BME280;62385;41.594;23.808;2023-05-23T09:16:16;95016.69;;;22.23;35.92
24160;BME280;62385;41.594;23.808;2023-05-23T09:18:52;95006.09;;;22.43;35.73
24160;BME280;62385;41.594;23.808;2023-05-23T09:21:20;95012.09;;;22.50;36.02
24160;BME280;62385;41.594;23.808;2023-05-23T09:24:00;95004.63;;;22.62;32.88
24160;BME280;62385;41.594;23.808;2023-05-23T09:26:27;95006.75;;;22.87;32.19
24160;BME280;62385;41.594;23.808;2023-05-23T09:28:56;95005.81;;;22.18;33.19
24160;BME280;62385;41.594;23.808;2023-05-23T09:31:25;95009.94;;;22.25;31.44
24160;BME280;62385;41.594;23.808;2023-05-23T09:33:52;95004.13;;;22.12;32.26
24160;BME280;62385;41.594;23.808;2023-05-23T09:36:18;95010.09;;;22.40;31.15
24160;BME280;62385;41.594;23.808;2023-05-23T09:38:45;95012.00;;;22.13;31.87
24160;BME280;62385;41.594;23.808;2023-05-23T09:41:12;95001.91;;;22.30;31.04
24160;BME280;62385;41.594;23.808;2023-05-23T09:43:39;95006.63;;;22.18;32.67
24160;BME280;62385;41.594;23.808;2023-05-23T09:46:09;95002.81;;;21.71;33.66
24160;BME280;62385;41.594;23.808;2023-05-23T09:48:35;95009.59;;;21.95;33.07
24160;BME280;62385;41.594;23.808;2023-05-23T09:51:08;95003.22;;;22.28;33.09
24160;BME280;62385;41.594;23.808;2023-05-23T09:53:35;95006.78;;;22.60;33.07
24160;BME280;62385;41.594;23.808;2023-05-23T09:56:02;95005.81;;;22.71;33.72
24160;BME280;62385;41.594;23.808;2023-05-23T09:58:29;94997.56;;;22.29;33.78
24160;BME280;62385;41.594;23.808;2023-05-23T10:00:55;94998.78;;;21.95;34.84
24160;BME280;62385;41.594;23.808;2023-05-23T10:03:33;95003.84;;;22.93;32.79
24160;BME280;62385;41.594;23.808;2023-05-23T10:06:03;94989.38;;;23.15;32.74
24160;BME280;62385;41.594;23.808;2023-05-23T10:08:35;94996.56;;;22.99;33.67
24160;BME280;62385;41.594;23.808;2023-05-23T10:13:48;94995.00;;;22.71;31.41
24160;BME280;62385;41.594;23.808;2023-05-23T10:16:41;94998.38;;;22.88;31.08
24160;BME280;62385;41.594;23.808;2023-05-23T10:19:26;94994.69;;;22.99;34.51
24160;BME280;62385;41.594;23.808;2023-05-23T10:21:57;94997.47;;;23.10;36.08
24160;BME280;62385;41.594;23.808;2023-05-23T10:24:28;95001.34;;;23.24;34.65
24160;BME280;62385;41.594;23.808;2023-05-23T10:26:53;94999.06;;;23.06;35.96
24160;BME280;62385;41.594;23.808;2023-05-23T10:29:23;95002.69;;;22.84;35.00
24160;BME280;62385;41.594;23.808;2023-05-23T10:31:49;94997.13;;;23.01;34.19
24160;BME280;62385;41.594;23.808;2023-05-23T10:34:27;94992.16;;;23.25;34.01
24160;BME280;62385;41.594;23.808;2023-05-23T10:37:05;94996.72;;;23.56;33.54
24160;BME280;62385;41.594;23.808;2023-05-23T10:43:01;94991.03;;;23.63;29.66
24160;BME280;62385;41.594;23.808;2023-05-23T10:45:28;94986.06;;;24.12;32.39
24160;BME280;62385;41.594;23.808;2023-05-23T10:47:54;94987.16;;;24.06;33.36
24160;BME280;62385;41.594;23.808;2023-05-23T10:50:33;94989.03;;;23.48;34.55
24160;BME280;62385;41.594;23.808;2023-05-23T10:53:01;94982.63;;;23.59;33.35
24160;BME280;62385;41.594;23.808;2023-05-23T10:55:32;94988.56;;;23.19;36.56
24160;BME280;62385;41.594;23.808;2023-05-23T10:58:18;94984.22;;;22.76;35.42
24160;BME280;62385;41.594;23.808;2023-05-23T11:00:56;94998.78;;;22.70;36.58
24160;BME280;62385;41.594;23.808;2023-05-23T11:06:02;95001.13;;;21.86;36.34
24160;BME280;62385;41.594;23.808;2023-05-23T11:08:36;94993.28;;;22.06;37.11
24160;BME280;62385;41.594;23.808;2023-05-23T11:11:03;95004.13;;;21.68;36.91
24160;BME280;62385;41.594;23.808;2023-05-23T11:13:57;95010.84;;;21.87;37.70
24160;BME280;62385;41.594;23.808;2023-05-23T11:16:39;95012.22;;;22.12;37.98
24160;BME280;62385;41.594;23.808;2023-05-23T11:22:02;95010.94;;;21.92;37.88
24160;BME280;62385;41.594;23.808;2023-05-23T11:24:52;95009.13;;;21.98;38.00
24160;BME280;62385;41.594;23.808;2023-05-23T11:27:35;95010.94;;;21.92;38.02
24160;BME280;62385;41.594;23.808;2023-05-23T11:30:09;95005.81;;;22.18;37.52
24160;BME280;62385;41.594;23.808;2023-05-23T11:32:37;95006.56;;;22.93;37.89
24160;BME280;62385;41.594;23.808;2023-05-23T11:35:05;94994.66;;;23.83;36.67
24160;BME280;62385;41.594;23.808;2023-05-23T11:37:31;94982.47;;;23.91;36.53
24160;BME280;62385;41.594;23.808;2023-05-23T11:39:57;94985.94;;;23.76;35.95
24160;BME280;62385;41.594;23.808;2023-05-23T11:42:24;94981.56;;;24.43;34.71
24160;BME280;62385;41.594;23.808;2023-05-23T11:44:50;94975.63;;;24.71;35.42
24160;BME280;62385;41.594;23.808;2023-05-23T11:47:16;94977.75;;;24.49;35.32
24160;BME280;62385;41.594;23.808;2023-05-23T11:49:44;94972.63;;;25.03;34.19
24160;BME280;62385;41.594;23.808;2023-05-23T11:52:11;94984.22;;;24.17;32.44
24160;BME280;62385;41.594;23.808;2023-05-23T11:54:39;94975.72;;;23.99;35.04
24160;BME280;62385;41.594;23.808;2023-05-23T11:57:05;94970.81;;;23.90;34.23
24160;BME280;62385;41.594;23.808;2023-05-23T11:59:31;94972.44;;;23.91;35.12
24160;BME280;62385;41.594;23.808;2023-05-23T12:01:58;94964.78;;;23.68;35.35
24160;BME280;62385;41.594;23.808;2023-05-23T12:04:24;94977.00;;;23.29;34.85
24160;BME280;62385;41.594;23.808;2023-05-23T12:06:52;94978.53;;;23.57;33.61
24160;BME280;62385;41.594;23.808;2023-05-23T12:09:17;94972.81;;;23.06;33.13
24160;BME280;62385;41.594;23.808;2023-05-23T12:11:43;94989.34;;;22.78;33.32
24160;BME280;62385;41.594;23.808;2023-05-23T12:14:14;94981.75;;;23.12;32.72
24160;BME280;62385;41.594;23.808;2023-05-23T12:16:42;94982.16;;;22.88;33.62
24160;BME280;62385;41.594;23.808;2023-05-23T12:19:10;94981.41;;;22.98;35.34
24160;BME280;62385;41.594;23.808;2023-05-23T12:21:41;94996.56;;;22.99;34.99
24160;BME280;62385;41.594;23.808;2023-05-23T12:24:21;94988.03;;;22.48;35.85
24160;BME280;62385;41.594;23.808;2023-05-23T12:26:52;94994.66;;;22.68;36.82
24160;BME280;62385;41.594;23.808;2023-05-23T12:29:29;94999.09;;;22.47;37.28
24160;BME280;62385;41.594;23.808;2023-05-23T12:31:57;94995.34;;;22.53;37.77
24160;BME280;62385;41.594;23.808;2023-05-23T12:34:28;94993.97;;;22.77;37.54
24160;BME280;62385;41.594;23.808;2023-05-23T12:36:56;94986.63;;;23.10;37.64
24160;BME280;62385;41.594;23.808;2023-05-23T12:39:26;94985.41;;;22.90;37.91
24160;BME280;62385;41.594;23.808;2023-05-23T12:41:53;94981.50;;;23.13;39.18
24160;BME280;62385;41.594;23.808;2023-05-23T12:44:20;94975.34;;;23.28;38.95
24160;BME280;62385;41.594;23.808;2023-05-23T12:46:49;94974.63;;;23.37;37.74
24160;BME280;62385;41.594;23.808;2023-05-23T12:49:18;94971.44;;;23.45;37.91
24160;BME280;62385;41.594;23.808;2023-05-23T12:51:45;94971.03;;;23.27;38.10
24160;BME280;62385;41.594;23.808;2023-05-23T12:54:11;94969.56;;;22.72;37.73
24160;BME280;62385;41.594;23.808;2023-05-23T12:56:39;94961.97;;;23.06;37.27
24160;BME280;62385;41.594;23.808;2023-05-23T12:59:04;94967.72;;;23.15;36.22
24160;BME280;62385;41.594;23.808;2023-05-23T13:01:35;94962.88;;;23.74;37.45
24160;BME280;62385;41.594;23.808;2023-05-23T13:04:01;94968.84;;;23.19;36.64
24160;BME280;62385;41.594;23.808;2023-05-23T13:06:27;94971.03;;;23.27;37.16
24160;BME280;62385;41.594;23.808;2023-05-23T13:08:52;94970.44;;;23.15;36.17
24160;BME280;62385;41.594;23.808;2023-05-23T13:11:20;94966.63;;;23.16;36.57
24160;BME280;62385;41.594;23.808;2023-05-23T13:13:47;94969.59;;;23.14;36.79
24160;BME280;62385;41.594;23.808;2023-05-23T13:16:12;94980.94;;;22.74;36.32